Time;durP1;ratioP1;P1;durP2;ratioP2;P2;SDS_P1;SDS_P2;PMS_P1;PMS_P2;Temp;Humidity;BMP_temperature;BMP_pressure;BME280_temperature;BME280_humidity;BME280_pressure;Samples;Min_cycle;Max_cycle;Signal;HPM_P1;HPM_P2
2023/07/26 00:00:17;;;;;;;;;;;;;;;;;;4985185;28;19932;-59
2023/07/26 00:02:43;;;;;;;;;;;;;;;;;;4985171;28;19925;-59
2023/07/26 00:05:09;;;;;;;;;;;;;;;;;;4983958;28;19934;-59
2023/07/26 00:07:35;;;;;;;;;;;;;;;;;;4984397;28;19969;-59
2023/07/26 00:10:01;;;;;;;;;;;;;;;;;;4967906;28;20427;-59
2023/07/26 00:12:27;;;;;;;;;;;;;;;;;;4984012;28;20257;-59
2023/07/26 00:14:53;;;;;;;;;;;;;;;;;;4985094;28;20388;-59
2023/07/26 00:17:19;;;;;;;;;;;;;;;;;;4984786;28;19930;-59
2023/07/26 00:19:45;;;;;;;;;;;;;;;;;;4984212;28;20535;-59
2023/07/26 00:22:11;;;;;;;;;;;;;;;;;;4985332;28;19934;-59
2023/07/26 00:24:37;;;;;;;;;;;;;;;;;;4984902;28;20025;-59
2023/07/26 00:27:03;;;;;;;;;;;;;;;;;;4983971;28;20303;-59
2023/07/26 00:29:28;;;;;;;;;;;;;;;;;;4984934;28;20372;-59
2023/07/26 00:31:54;;;;;;;;;;;;;;;;;;4983770;28;19922;-59
2023/07/26 00:34:20;;;;;;;;;;;;;;;;;;4984843;28;19926;-59
2023/07/26 00:36:46;;;;;;;;;;;;;;;;;;4984140;28;20585;-59
2023/07/26 00:39:12;;;;;;;;;;;;;;;;;;4984718;28;19979;-60
2023/07/26 00:41:38;;;;;;;;;;;;;;;;;;4984850;28;19936;-59
2023/07/26 00:44:04;;;;;;;;;;;;;;;;;;4983463;28;20591;-59
2023/07/26 00:46:30;;;;;;;;;;;;;;;;;;4984896;28;19933;-59
2023/07/26 00:48:56;;;;;;;;;;;;;;;;;;4982404;28;19926;-59
2023/07/26 00:51:22;;;;;;;;;;;;;;;;;;4984423;28;19936;-60
2023/07/26 00:53:47;;;;;;;;;;;;;;;;;;4984310;28;19933;-59
2023/07/26 00:56:13;;;;;;;;;;;;;;;;;;4983085;28;20304;-59
2023/07/26 00:58:43;;;;;;;;;;;;;;;;;;4984870;28;19926;-59
2023/07/26 01:01:08;;;;;;;;;;;;;;;;;;4984547;28;19980;-59
2023/07/26 01:03:34;;;;;;;;;;;;;;;;;;5075460;23;19965;-58
2023/07/26 01:06:00;;;;;;;;;;;;;;;;;;4989311;28;20076;-58
2023/07/26 01:08:27;;;;;;;;;;;;;;;;;;4998472;28;19926;-58
2023/07/26 01:10:53;;;;;;;;;;;;;;;;;;4978950;28;19926;-58
2023/07/26 01:13:19;;;;;;;;;;;;;;;;;;4999703;28;19925;-58
2023/07/26 01:15:46;;;;;;;;;;;;;;;;;;5003144;28;19926;-59
2023/07/26 01:18:12;;;;;;;;;;;;;;;;;;5003648;28;19930;-58
2023/07/26 01:20:38;;;;;;;;;;;;;;;;;;5004519;28;19929;-58
2023/07/26 01:23:04;;;;;;;;;;;;;;;;;;5004153;28;20290;-57
2023/07/26 01:25:30;;;;;;;;;;;;;;;;;;5003149;28;20563;-58
2023/07/26 01:27:56;;;;;;;;;;;;;;;;;;5003550;28;19925;-58
2023/07/26 01:30:22;;;;;;;;;;;;;;;;;;5003837;28;19952;-57
2023/07/26 01:32:48;;;;;;;;;;;;;;;;;;5004112;28;19926;-58
2023/07/26 01:35:14;;;;;;;;;;;;;;;;;;5003402;28;19976;-58
2023/07/26 01:37:39;;;;;;;;;;;;;;;;;;5003103;28;19921;-58
2023/07/26 01:40:05;;;;;;;;;;;;;;;;;;5003331;28;19984;-58
2023/07/26 01:42:31;;;;;;;;;;;;;;;;;;5002543;28;19964;-58
2023/07/26 01:44:57;;;;;;;;;;;;;;;;;;5003402;28;20017;-58
2023/07/26 01:47:23;;;;;;;;;;;;;;;;;;5002916;28;19925;-58
2023/07/26 01:49:49;;;;;;;;;;;;;;;;;;5002837;28;19963;-58
2023/07/26 01:52:15;;;;;;;;;;;;;;;;;;5003560;28;19961;-59
2023/07/26 01:54:41;;;;;;;;;;;;;;;;;;5003660;28;20470;-59
2023/07/26 01:57:07;;;;;;;;;;;;;;;;;;5003642;28;19926;-59
2023/07/26 01:59:33;;;;;;;;;;;;;;;;;;5003785;28;20025;-59
2023/07/26 02:01:59;;;;;;;;;;;;;;;;;;4984652;28;19977;-59
2023/07/26 02:04:25;;;;;;;;;;;;;;;;;;5003408;28;19926;-59
2023/07/26 02:06:50;;;;;;;;;;;;;;;;;;5003197;28;19987;-59
2023/07/26 02:09:16;;;;;;;;;;;;;;;;;;5003590;28;19926;-59
2023/07/26 02:11:42;;;;;;;;;;;;;;;;;;5001952;28;19925;-58
2023/07/26 02:14:08;;;;;;;;;;;;;;;;;;5002604;28;20372;-59
2023/07/26 02:16:34;;;;;;;;;;;;;;;;;;5003027;28;19925;-60
2023/07/26 02:19:00;;;;;;;;;;;;;;;;;;5006237;28;19932;-59
2023/07/26 02:21:26;;;;;;;;;;;;;;;;;;5006622;28;19925;-59
2023/07/26 02:23:52;;;;;;;;;;;;;;;;;;5006455;28;20083;-59
2023/07/26 02:26:18;;;;;;;;;;;;;;;;;;5005717;28;19929;-58
2023/07/26 02:28:44;;;;;;;;;;;;;;;;;;5006790;28;19925;-59
2023/07/26 02:31:10;;;;;;;;;;;;;;;;;;4993753;28;19929;-59
2023/07/26 02:33:36;;;;;;;;;;;;;;;;;;5006525;28;19948;-58
2023/07/26 02:36:02;;;;;;;;;;;;;;;;;;5005455;28;19952;-59
2023/07/26 02:38:27;;;;;;;;;;;;;;;;;;5006526;28;19926;-58
2023/07/26 02:40:53;;;;;;;;;;;;;;;;;;5005930;28;19980;-58
2023/07/26 02:43:19;;;;;;;;;;;;;;;;;;5006185;28;19925;-58
2023/07/26 02:45:45;;;;;;;;;;;;;;;;;;4988837;28;19933;-58
2023/07/26 02:48:11;;;;;;;;;;;;;;;;;;5006052;28;19929;-59
2023/07/26 02:50:37;;;;;;;;;;;;;;;;;;5006275;28;20453;-59
2023/07/26 02:53:03;;;;;;;;;;;;;;;;;;5005864;28;19937;-59
2023/07/26 02:55:29;;;;;;;;;;;;;;;;;;5005451;28;19943;-59
2023/07/26 02:57:55;;;;;;;;;;;;;;;;;;5005719;28;19926;-59
2023/07/26 03:00:21;;;;;;;;;;;;;;;;;;5005877;28;19926;-59
2023/07/26 03:02:47;;;;;;;;;;;;;;;;;;5006507;28;19928;-58
2023/07/26 03:05:12;;;;;;;;;;;;;;;;;;5006411;28;19932;-59
2023/07/26 03:07:39;;;;;;;;;;;;;;;;;;5006511;28;19926;-59
2023/07/26 03:10:05;;;;;;;;;;;;;;;;;;5005689;28;19930;-59
2023/07/26 03:12:30;;;;;;;;;;;;;;;;;;5004916;28;19972;-59
2023/07/26 03:14:56;;;;;;;;;;;;;;;;;;5005220;28;19933;-58
2023/07/26 03:17:22;;;;;;;;;;;;;;;;;;5005788;28;19996;-59
2023/07/26 03:19:48;;;;;;;;;;;;;;;;;;5006425;28;20661;-59
2023/07/26 03:22:14;;;;;;;;;;;;;;;;;;5005324;28;20617;-59
2023/07/26 03:24:40;;;;;;;;;;;;;;;;;;5006418;28;19995;-58
2023/07/26 03:27:07;;;;;;;;;;;;;;;;;;5005167;28;20617;-59
2023/07/26 03:29:33;;;;;;;;;;;;;;;;;;5005425;28;20410;-59
2023/07/26 03:31:59;;;;;;;;;;;;;;;;;;5005882;28;19925;-59
2023/07/26 03:34:25;;;;;;;;;;;;;;;;;;5005304;28;20033;-58
2023/07/26 03:36:51;;;;;;;;;;;;;;;;;;5006008;28;20373;-58
2023/07/26 03:39:17;;;;;;;;;;;;;;;;;;5005777;28;20494;-58
2023/07/26 03:41:43;;;;;;;;;;;;;;;;;;5004774;28;19925;-59
2023/07/26 03:44:09;;;;;;;;;;;;;;;;;;4987802;28;19933;-59
2023/07/26 03:46:34;;;;;;;;;;;;;;;;;;4986651;28;19926;-59
2023/07/26 03:49:00;;;;;;;;;;;;;;;;;;5005377;28;19925;-58
2023/07/26 03:51:26;;;;;;;;;;;;;;;;;;5004842;28;20294;-59
2023/07/26 03:53:52;;;;;;;;;;;;;;;;;;5004875;28;19925;-59
2023/07/26 03:56:18;;;;;;;;;;;;;;;;;;5003023;28;19925;-58
2023/07/26 03:58:44;;;;;;;;;;;;;;;;;;5004147;28;19929;-59
2023/07/26 04:01:10;;;;;;;;;;;;;;;;;;5005541;28;19932;-59
2023/07/26 04:03:36;;;;;;;;;;;;;;;;;;5004651;28;19926;-59
2023/07/26 04:06:02;;;;;;;;;;;;;;;;;;4987289;28;20307;-59
2023/07/26 04:08:28;;;;;;;;;;;;;;;;;;5004845;28;20283;-59
2023/07/26 04:10:54;;;;;;;;;;;;;;;;;;5003520;28;20426;-59
2023/07/26 04:13:21;;;;;;;;;;;;;;;;;;5004715;28;20134;-59
2023/07/26 04:15:47;;;;;;;;;;;;;;;;;;5004280;28;20015;-59
2023/07/26 04:18:13;;;;;;;;;;;;;;;;;;5004784;28;19965;-59
2023/07/26 04:20:39;;;;;;;;;;;;;;;;;;5004189;28;19979;-59
2023/07/26 04:23:05;;;;;;;;;;;;;;;;;;5004171;28;20012;-59
2023/07/26 04:25:31;;;;;;;;;;;;;;;;;;5003668;28;20486;-59
2023/07/26 04:27:57;;;;;;;;;;;;;;;;;;5004346;28;20004;-59
2023/07/26 04:30:23;;;;;;;;;;;;;;;;;;5004375;28;20286;-58
2023/07/26 04:32:49;;;;;;;;;;;;;;;;;;5003380;28;20076;-59
2023/07/26 04:35:14;;;;;;;;;;;;;;;;;;5004385;28;19957;-59
2023/07/26 04:37:41;;;;;;;;;;;;;;;;;;5004735;28;19933;-59
2023/07/26 04:40:07;;;;;;;;;;;;;;;;;;5003729;28;19926;-59
2023/07/26 04:42:34;;;;;;;;;;;;;;;;;;5004242;28;19932;-58
2023/07/26 04:45:00;;;;;;;;;;;;;;;;;;5003330;28;19925;-58
2023/07/26 04:47:26;;;;;;;;;;;;;;;;;;5003730;28;19926;-59
2023/07/26 04:49:52;;;;;;;;;;;;;;;;;;5004369;28;19929;-59
2023/07/26 04:52:18;;;;;;;;;;;;;;;;;;5004082;28;19926;-58
2023/07/26 04:54:44;;;;;;;;;;;;;;;;;;5003974;28;19932;-59
2023/07/26 04:57:10;;;;;;;;;;;;;;;;;;5002715;28;20374;-58
2023/07/26 04:59:35;;;;;;;;;;;;;;;;;;5004147;28;19926;-59
2023/07/26 05:02:01;;;;;;;;;;;;;;;;;;5004120;28;19929;-59
2023/07/26 05:04:27;;;;;;;;;;;;;;;;;;5003539;28;19926;-59
2023/07/26 05:06:53;;;;;;;;;;;;;;;;;;4985844;28;19936;-59
2023/07/26 05:09:19;;;;;;;;;;;;;;;;;;5004057;28;20287;-60
2023/07/26 05:11:45;;;;;;;;;;;;;;;;;;5002643;28;20410;-61
2023/07/26 05:14:11;;;;;;;;;;;;;;;;;;5004327;28;19975;-58
2023/07/26 05:16:37;;;;;;;;;;;;;;;;;;5003673;28;19925;-58
2023/07/26 05:19:03;;;;;;;;;;;;;;;;;;5003145;28;19968;-58
2023/07/26 05:21:29;;;;;;;;;;;;;;;;;;5003515;28;20387;-59
2023/07/26 05:23:55;;;;;;;;;;;;;;;;;;5003435;28;20429;-59
2023/07/26 05:26:21;;;;;;;;;;;;;;;;;;5003304;28;19925;-58
2023/07/26 05:28:46;;;;;;;;;;;;;;;;;;5002868;28;19975;-59
2023/07/26 05:31:12;;;;;;;;;;;;;;;;;;5002655;28;19925;-59
2023/07/26 05:33:38;;;;;;;;;;;;;;;;;;5001812;28;20012;-60
2023/07/26 05:36:04;;;;;;;;;;;;;;;;;;5003213;28;20013;-60
2023/07/26 05:38:30;;;;;;;;;;;;;;;;;;5003829;28;19926;-60
2023/07/26 05:40:56;;;;;;;;;;;;;;;;;;5001634;28;20024;-59
2023/07/26 05:43:22;;;;;;;;;;;;;;;;;;5003042;28;19929;-59
2023/07/26 05:45:48;;;;;;;;;;;;;;;;;;5003233;28;20286;-59
2023/07/26 05:48:14;;;;;;;;;;;;;;;;;;5002987;28;20581;-58
2023/07/26 05:50:40;;;;;;;;;;;;;;;;;;5003671;28;19929;-59
2023/07/26 05:53:06;;;;;;;;;;;;;;;;;;5004772;28;19925;-59
2023/07/26 05:55:32;;;;;;;;;;;;;;;;;;5005673;28;19980;-60
2023/07/26 05:57:58;;;;;;;;;;;;;;;;;;5007047;28;19926;-60
2023/07/26 06:00:24;;;;;;;;;;;;;;;;;;5007218;28;20071;-60
2023/07/26 06:02:50;;;;;;;;;;;;;;;;;;5007188;28;20004;-60
2023/07/26 06:05:16;;;;;;;;;;;;;;;;;;5006654;28;20445;-61
2023/07/26 06:07:42;;;;;;;;;;;;;;;;;;5006179;28;19930;-61
2023/07/26 06:10:08;;;;;;;;;;;;;;;;;;4988779;28;19979;-61
2023/07/26 06:12:35;;;;;;;;;;;;;;;;;;5006378;28;19925;-60
2023/07/26 06:15:01;;;;;;;;;;;;;;;;;;5007086;28;20481;-60
2023/07/26 06:17:27;;;;;;;;;;;;;;;;;;5006312;28;20012;-60
2023/07/26 06:19:53;;;;;;;;;;;;;;;;;;5005235;28;20358;-60
2023/07/26 06:22:19;;;;;;;;;;;;;;;;;;5006938;28;20401;-60
2023/07/26 06:24:44;;;;;;;;;;;;;;;;;;5004057;28;19937;-60
2023/07/26 06:27:10;;;;;;;;;;;;;;;;;;5005517;28;19925;-61
2023/07/26 06:29:37;;;;;;;;;;;;;;;;;;5006740;28;19933;-61
2023/07/26 06:32:03;;;;;;;;;;;;;;;;;;5006151;28;20028;-61
2023/07/26 06:34:29;;;;;;;;;;;;;;;;;;5006313;28;19926;-61
2023/07/26 06:36:55;;;;;;;;;;;;;;;;;;5006072;28;19952;-61
2023/07/26 06:39:21;;;;;;;;;;;;;;;;;;5006084;28;19925;-61
2023/07/26 06:41:47;;;;;;;;;;;;;;;;;;5004979;28;19925;-61
2023/07/26 06:44:13;;;;;;;;;;;;;;;;;;5006467;28;19921;-62
2023/07/26 06:46:39;;;;;;;;;;;;;;;;;;5005823;28;19956;-61
2023/07/26 06:49:05;;;;;;;;;;;;;;;;;;5005947;28;19929;-61
2023/07/26 06:51:31;;;;;;;;;;;;;;;;;;5006364;28;20409;-61
2023/07/26 06:53:56;;;;;;;;;;;;;;;;;;5005995;28;19951;-61
2023/07/26 06:56:22;;;;;;;;;;;;;;;;;;5002665;28;19936;-61
2023/07/26 06:58:48;;;;;;;;;;;;;;;;;;5006326;28;19932;-61
2023/07/26 07:01:14;;;;;;;;;;;;;;;;;;5005298;28;19929;-61
2023/07/26 07:03:40;;;;;;;;;;;;;;;;;;5004774;28;19925;-61
2023/07/26 07:06:06;;;;;;;;;;;;;;;;;;5005874;28;20275;-61
2023/07/26 07:08:32;;;;;;;;;;;;;;;;;;5005777;28;20454;-61
2023/07/26 07:10:58;;;;;;;;;;;;;;;;;;5001579;28;19948;-61
2023/07/26 07:13:24;;;;;;;;;;;;;;;;;;5004858;28;19926;-61
2023/07/26 07:15:50;;;;;;;;;;;;;;;;;;5003573;28;20268;-61
2023/07/26 07:18:16;;;;;;;;;;;;;;;;;;5005959;28;19926;-61
2023/07/26 07:20:42;;;;;;;;;;;;;;;;;;5004554;28;19929;-61
2023/07/26 07:23:09;;;;;;;;;;;;;;;;;;5008870;28;19956;-61
2023/07/26 07:25:35;;;;;;;;;;;;;;;;;;5016793;28;19960;-62
2023/07/26 07:28:00;;;;;;;;;;;;;;;;;;5005143;28;19960;-60
2023/07/26 07:30:26;;;;;;;;;;;;;;;;;;5005677;28;19969;-60
2023/07/26 07:32:52;;;;;;;;;;;;;;;;;;5005697;28;20355;-61
2023/07/26 07:35:18;;;;;;;;;;;;;;;;;;5011516;28;20593;-60
2023/07/26 07:37:44;;;;;;;;;;;;;;;;;;5008381;28;19925;-60
2023/07/26 07:40:11;;;;;;;;;;;;;;;;;;5004653;28;19932;-60
2023/07/26 07:42:37;;;;;;;;;;;;;;;;;;5005037;28;20440;-61
2023/07/26 07:45:04;;;;;;;;;;;;;;;;;;5004871;28;19925;-61
2023/07/26 07:47:30;;;;;;;;;;;;;;;;;;5004657;28;19933;-60
2023/07/26 07:49:56;;;;;;;;;;;;;;;;;;5005096;28;20019;-61
2023/07/26 07:52:22;;;;;;;;;;;;;;;;;;5004897;28;20028;-59
2023/07/26 07:54:48;;;;;;;;;;;;;;;;;;5004776;28;19926;-60
2023/07/26 07:57:14;;;;;;;;;;;;;;;;;;5004879;28;19957;-60
2023/07/26 07:59:40;;;;;;;;;;;;;;;;;;5005794;28;19929;-61
2023/07/26 08:02:06;;;;;;;;;;;;;;;;;;5005187;28;19926;-61
2023/07/26 08:04:32;;;;;;;;;;;;;;;;;;5002472;28;20020;-60
2023/07/26 08:06:58;;;;;;;;;;;;;;;;;;5004321;28;20375;-63
2023/07/26 08:09:23;;;;;;;;;;;;;;;;;;5004816;28;19929;-60
2023/07/26 08:11:49;;;;;;;;;;;;;;;;;;5006498;28;19971;-59
2023/07/26 08:14:15;;;;;;;;;;;;;;;;;;5004930;28;19975;-59
2023/07/26 08:16:41;;;;;;;;;;;;;;;;;;5004315;28;19926;-60
2023/07/26 08:19:07;;;;;;;;;;;;;;;;;;5003852;28;19926;-60
2023/07/26 08:21:33;;;;;;;;;;;;;;;;;;5003441;28;19948;-60
2023/07/26 08:23:59;;;;;;;;;;;;;;;;;;5003511;28;19926;-60
2023/07/26 08:26:25;;;;;;;;;;;;;;;;;;5000437;28;20021;-60
2023/07/26 08:28:51;;;;;;;;;;;;;;;;;;4996242;28;20017;-61
2023/07/26 08:31:17;;;;;;;;;;;;;;;;;;5004840;28;20015;-61
2023/07/26 08:33:43;;;;;;;;;;;;;;;;;;5004380;28;19996;-60
2023/07/26 08:36:09;;;;;;;;;;;;;;;;;;5003908;28;19932;-60
2023/07/26 08:38:35;;;;;;;;;;;;;;;;;;4986050;28;19933;-61
2023/07/26 08:41:01;;;;;;;;;;;;;;;;;;5003793;28;19925;-60
2023/07/26 08:43:27;;;;;;;;;;;;;;;;;;5004100;28;19937;-61
2023/07/26 08:45:53;;;;;;;;;;;;;;;;;;5004284;28;19932;-61
2023/07/26 08:48:18;;;;;;;;;;;;;;;;;;5003331;28;19980;-60
2023/07/26 08:50:44;;;;;;;;;;;;;;;;;;4991779;28;20335;-61
2023/07/26 08:53:10;;;;;;;;;;;;;;;;;;4986483;28;20359;-60
2023/07/26 08:55:36;;;;;;;;;;;;;;;;;;5004168;28;19925;-60
2023/07/26 08:58:02;;;;;;;;;;;;;;;;;;5003851;28;19929;-61
2023/07/26 09:00:28;;;;;;;;;;;;;;;;;;5002621;28;20375;-60
2023/07/26 09:02:54;;;;;;;;;;;;;;;;;;5003604;28;20588;-60
2023/07/26 09:05:20;;;;;;;;;;;;;;;;;;5003247;28;19925;-60
2023/07/26 09:07:46;;;;;;;;;;;;;;;;;;5003790;28;19973;-61
2023/07/26 09:10:12;;;;;;;;;;;;;;;;;;4996092;28;19929;-60
2023/07/26 09:12:38;;;;;;;;;;;;;;;;;;5003899;28;20025;-60
2023/07/26 09:15:05;;;;;;;;;;;;;;;;;;5004060;28;19948;-60
2023/07/26 09:17:30;;;;;;;;;;;;;;;;;;5001597;28;19987;-61
2023/07/26 09:19:56;;;;;;;;;;;;;;;;;;5003587;28;20355;-60
2023/07/26 09:22:22;;;;;;;;;;;;;;;;;;5003382;28;19937;-60
2023/07/26 09:24:48;;;;;;;;;;;;;;;;;;5002653;28;19961;-61
2023/07/26 09:27:14;;;;;;;;;;;;;;;;;;5002909;28;20008;-60
2023/07/26 09:29:40;;;;;;;;;;;;;;;;;;5008159;28;20505;-59
2023/07/26 09:32:06;;;;;;;;;;;;;;;;;;5006815;28;20453;-59
2023/07/26 09:34:32;;;;;;;;;;;;;;;;;;5006545;28;20441;-60
2023/07/26 09:36:58;;;;;;;;;;;;;;;;;;5002912;28;19969;-60
2023/07/26 09:39:27;;;;;;;;;;;;;;;;;;5006725;28;19977;-59
2023/07/26 09:41:53;;;;;;;;;;;;;;;;;;5007725;28;19976;-59
2023/07/26 09:44:19;;;;;;;;;;;;;;;;;;5007399;28;19969;-59
2023/07/26 09:46:45;;;;;;;;;;;;;;;;;;5004907;28;19984;-59
2023/07/26 09:49:11;;;;;;;;;;;;;;;;;;5007374;28;19934;-59
2023/07/26 09:51:37;;;;;;;;;;;;;;;;;;5007595;28;19932;-60
2023/07/26 09:54:03;;;;;;;;;;;;;;;;;;5007399;28;19980;-60
2023/07/26 09:56:29;;;;;;;;;;;;;;;;;;4993675;28;19926;-60
2023/07/26 09:58:55;;;;;;;;;;;;;;;;;;5007082;28;20015;-59
2023/07/26 10:01:21;;;;;;;;;;;;;;;;;;5007101;28;20061;-59
2023/07/26 10:03:47;;;;;;;;;;;;;;;;;;5006425;28;19925;-59
2023/07/26 10:06:13;;;;;;;;;;;;;;;;;;4997183;28;19972;-60
2023/07/26 10:08:41;;;;;;;;;;;;;;;;;;5007234;28;19926;-60
2023/07/26 10:11:07;;;;;;;;;;;;;;;;;;5006673;28;19926;-59
2023/07/26 10:13:33;;;;;;;;;;;;;;;;;;5006755;28;20294;-59
2023/07/26 10:15:59;;;;;;;;;;;;;;;;;;5006438;28;19983;-60
2023/07/26 10:18:24;;;;;;;;;;;;;;;;;;4988310;28;20385;-59
2023/07/26 10:20:50;;;;;;;;;;;;;;;;;;5006758;28;19926;-60
2023/07/26 10:23:16;;;;;;;;;;;;;;;;;;5006759;28;19987;-60
2023/07/26 10:25:42;;;;;;;;;;;;;;;;;;5001454;28;19926;-60
2023/07/26 10:28:08;;;;;;;;;;;;;;;;;;5006666;28;20374;-60
2023/07/26 10:30:34;;;;;;;;;;;;;;;;;;5006531;28;19926;-60
2023/07/26 10:33:00;;;;;;;;;;;;;;;;;;5005766;28;19926;-60
2023/07/26 10:35:27;;;;;;;;;;;;;;;;;;5004112;28;19941;-60
2023/07/26 10:37:53;;;;;;;;;;;;;;;;;;5006480;28;19948;-60
2023/07/26 10:40:19;;;;;;;;;;;;;;;;;;5005475;28;20406;-60
2023/07/26 10:42:45;;;;;;;;;;;;;;;;;;5006274;28;19925;-60
2023/07/26 10:45:11;;;;;;;;;;;;;;;;;;5004060;28;19925;-60
2023/07/26 10:47:37;;;;;;;;;;;;;;;;;;4998385;28;19929;-61
2023/07/26 10:50:02;;;;;;;;;;;;;;;;;;5003245;28;19929;-60
2023/07/26 10:52:28;;;;;;;;;;;;;;;;;;5006309;28;19932;-61
2023/07/26 10:54:54;;;;;;;;;;;;;;;;;;5003670;28;19932;-61
2023/07/26 10:57:20;;;;;;;;;;;;;;;;;;5003503;28;20034;-62
2023/07/26 10:59:46;;;;;;;;;;;;;;;;;;5004736;28;20383;-63
2023/07/26 11:02:12;;;;;;;;;;;;;;;;;;5004805;28;20019;-65
2023/07/26 11:04:38;;;;;;;;;;;;;;;;;;5005045;28;19926;-64
2023/07/26 11:07:04;;;;;;;;;;;;;;;;;;5004893;28;19941;-64
2023/07/26 11:09:30;;;;;;;;;;;;;;;;;;5005139;28;19929;-63
2023/07/26 11:11:56;;;;;;;;;;;;;;;;;;5005269;28;19952;-63
2023/07/26 11:14:22;;;;;;;;;;;;;;;;;;5005268;28;19979;-62
2023/07/26 11:16:48;;;;;;;;;;;;;;;;;;5003518;28;19980;-62
2023/07/26 11:19:14;;;;;;;;;;;;;;;;;;5005491;28;19976;-62
2023/07/26 11:21:40;;;;;;;;;;;;;;;;;;5002855;28;20065;-62
2023/07/26 11:24:06;;;;;;;;;;;;;;;;;;4997953;28;19926;-61
2023/07/26 11:26:32;;;;;;;;;;;;;;;;;;5005060;28;19980;-61
2023/07/26 11:28:58;;;;;;;;;;;;;;;;;;5005102;28;19936;-61
2023/07/26 11:31:24;;;;;;;;;;;;;;;;;;5000694;28;19932;-61
2023/07/26 11:33:51;;;;;;;;;;;;;;;;;;4983296;28;19999;-62
2023/07/26 11:36:17;;;;;;;;;;;;;;;;;;4986768;28;19926;-62
2023/07/26 11:38:43;;;;;;;;;;;;;;;;;;5003742;28;19922;-62
2023/07/26 11:41:08;;;;;;;;;;;;;;;;;;5000828;28;19987;-62
2023/07/26 11:43:34;;;;;;;;;;;;;;;;;;4994188;28;20574;-62
2023/07/26 11:46:00;;;;;;;;;;;;;;;;;;5003396;28;19926;-62
2023/07/26 11:48:30;;;;;;;;;;;;;;;;;;5004425;28;20019;-62
2023/07/26 11:50:55;;;;;;;;;;;;;;;;;;5004588;28;20368;-62
2023/07/26 11:53:21;;;;;;;;;;;;;;;;;;5001005;28;19937;-62
2023/07/26 11:55:47;;;;;;;;;;;;;;;;;;5003698;28;19980;-62
2023/07/26 11:58:14;;;;;;;;;;;;;;;;;;4991854;28;19929;-62
2023/07/26 12:00:40;;;;;;;;;;;;;;;;;;4989994;28;19926;-62
2023/07/26 12:03:07;;;;;;;;;;;;;;;;;;4993908;28;20273;-61
2023/07/26 12:05:33;;;;;;;;;;;;;;;;;;5004832;28;19940;-60
2023/07/26 12:07:59;;;;;;;;;;;;;;;;;;5003869;28;19926;-60
2023/07/26 12:10:25;;;;;;;;;;;;;;;;;;5003551;28;19925;-60
2023/07/26 12:12:51;;;;;;;;;;;;;;;;;;4996201;28;19925;-61
2023/07/26 12:15:17;;;;;;;;;;;;;;;;;;4986878;28;19926;-60
2023/07/26 12:17:43;;;;;;;;;;;;;;;;;;5003940;28;19925;-60
2023/07/26 12:20:09;;;;;;;;;;;;;;;;;;5002460;28;19926;-60
2023/07/26 12:22:34;;;;;;;;;;;;;;;;;;4997602;28;20453;-61
2023/07/26 12:25:02;;;;;;;;;;;;;;;;;;5002373;28;19933;-61
2023/07/26 12:27:28;;;;;;;;;;;;;;;;;;5003401;28;20032;-60
2023/07/26 12:29:54;;;;;;;;;;;;;;;;;;5004773;28;20395;-60
2023/07/26 12:32:21;;;;;;;;;;;;;;;;;;4995340;28;20386;-61
2023/07/26 12:34:47;;;;;;;;;;;;;;;;;;4986569;28;19925;-60
2023/07/26 12:37:13;;;;;;;;;;;;;;;;;;5004290;28;19933;-60
2023/07/26 12:39:40;;;;;;;;;;;;;;;;;;5002365;28;19964;-61
2023/07/26 12:42:06;;;;;;;;;;;;;;;;;;4996096;28;19940;-61
2023/07/26 12:44:33;;;;;;;;;;;;;;;;;;5000160;28;20403;-60
2023/07/26 12:47:00;;;;;;;;;;;;;;;;;;5003747;28;19979;-61
2023/07/26 12:49:26;;;;;;;;;;;;;;;;;;5004418;28;19925;-58
2023/07/26 12:51:52;;;;;;;;;;;;;;;;;;5003049;28;19936;-60
2023/07/26 12:54:18;;;;;;;;;;;;;;;;;;4984840;28;19949;-61
2023/07/26 12:56:44;;;;;;;;;;;;;;;;;;5003113;28;19925;-61
2023/07/26 12:59:10;;;;;;;;;;;;;;;;;;5004247;28;20346;-60
2023/07/26 13:01:39;;;;;;;;;;;;;;;;;;5004229;28;19930;-60
2023/07/26 13:04:05;;;;;;;;;;;;;;;;;;5003811;28;19925;-60
2023/07/26 13:06:31;;;;;;;;;;;;;;;;;;5004029;28;20391;-60
2023/07/26 13:08:57;;;;;;;;;;;;;;;;;;5001940;28;19932;-61
2023/07/26 13:11:22;;;;;;;;;;;;;;;;;;5004374;28;19925;-60
2023/07/26 13:13:48;;;;;;;;;;;;;;;;;;5003679;28;19995;-61
2023/07/26 13:16:14;;;;;;;;;;;;;;;;;;5004131;28;19929;-61
2023/07/26 13:18:40;;;;;;;;;;;;;;;;;;5003652;28;20391;-62
2023/07/26 13:21:06;;;;;;;;;;;;;;;;;;5003266;28;19929;-61
2023/07/26 13:23:32;;;;;;;;;;;;;;;;;;4985305;28;19937;-62
2023/07/26 13:25:58;;;;;;;;;;;;;;;;;;5003295;28;19925;-61
2023/07/26 13:28:24;;;;;;;;;;;;;;;;;;5003508;28;19926;-62
2023/07/26 13:30:50;;;;;;;;;;;;;;;;;;5004079;28;19926;-60
2023/07/26 13:33:16;;;;;;;;;;;;;;;;;;5003074;28;20016;-62
2023/07/26 13:35:42;;;;;;;;;;;;;;;;;;5003776;28;20426;-62
2023/07/26 13:38:08;;;;;;;;;;;;;;;;;;5003508;28;19945;-62
2023/07/26 13:40:34;;;;;;;;;;;;;;;;;;5001894;28;20075;-62
2023/07/26 13:43:00;;;;;;;;;;;;;;;;;;5001907;28;19972;-61
2023/07/26 13:45:26;;;;;;;;;;;;;;;;;;5001933;28;19968;-62
2023/07/26 13:47:52;;;;;;;;;;;;;;;;;;5002862;28;19949;-62
2023/07/26 13:50:18;;;;;;;;;;;;;;;;;;5002155;28;20295;-62
2023/07/26 13:52:44;;;;;;;;;;;;;;;;;;5003169;28;19929;-62
2023/07/26 13:55:10;;;;;;;;;;;;;;;;;;5003519;28;19971;-62
2023/07/26 13:57:36;;;;;;;;;;;;;;;;;;5001591;28;20626;-63
2023/07/26 14:00:02;;;;;;;;;;;;;;;;;;5002642;28;19952;-63
2023/07/26 14:02:28;;;;;;;;;;;;;;;;;;5000127;28;20171;-62
2023/07/26 14:04:53;;;;;;;;;;;;;;;;;;5003361;28;19926;-63
2023/07/26 14:07:19;;;;;;;;;;;;;;;;;;5003481;28;19926;-62
2023/07/26 14:09:45;;;;;;;;;;;;;;;;;;5002281;28;19956;-62
2023/07/26 14:12:13;;;;;;;;;;;;;;;;;;4992676;28;20285;-61
2023/07/26 14:14:38;;;;;;;;;;;;;;;;;;5006751;28;19948;-62
2023/07/26 14:17:04;;;;;;;;;;;;;;;;;;4989550;28;20395;-62
2023/07/26 14:19:30;;;;;;;;;;;;;;;;;;5000509;28;19954;-62
2023/07/26 14:21:56;;;;;;;;;;;;;;;;;;4992077;28;19925;-62
2023/07/26 14:24:22;;;;;;;;;;;;;;;;;;5006069;28;19933;-62
2023/07/26 14:26:48;;;;;;;;;;;;;;;;;;5006964;28;19932;-62
2023/07/26 14:29:14;;;;;;;;;;;;;;;;;;5003566;28;19949;-62
2023/07/26 14:31:40;;;;;;;;;;;;;;;;;;4991192;28;19926;-62
2023/07/26 14:34:06;;;;;;;;;;;;;;;;;;5006286;28;19930;-63
2023/07/26 14:36:32;;;;;;;;;;;;;;;;;;5006924;28;19952;-63
2023/07/26 14:38:58;;;;;;;;;;;;;;;;;;4997592;28;19971;-63
2023/07/26 14:41:24;;;;;;;;;;;;;;;;;;5001768;28;19933;-62
2023/07/26 14:43:50;;;;;;;;;;;;;;;;;;5006630;28;19948;-63
2023/07/26 14:46:16;;;;;;;;;;;;;;;;;;5006413;28;20414;-62
2023/07/26 14:48:42;;;;;;;;;;;;;;;;;;5004638;28;20116;-62
2023/07/26 14:51:07;;;;;;;;;;;;;;;;;;5004921;28;20064;-62
2023/07/26 14:53:33;;;;;;;;;;;;;;;;;;5004903;28;20016;-62
2023/07/26 14:55:59;;;;;;;;;;;;;;;;;;5006451;28;19926;-63
2023/07/26 14:58:25;;;;;;;;;;;;;;;;;;5005146;28;20659;-63
2023/07/26 15:00:51;;;;;;;;;;;;;;;;;;5006295;28;19969;-63
2023/07/26 15:03:17;;;;;;;;;;;;;;;;;;5006162;28;19964;-62
2023/07/26 15:05:44;;;;;;;;;;;;;;;;;;5006113;28;19925;-62
2023/07/26 15:08:10;;;;;;;;;;;;;;;;;;5004500;28;20347;-63
2023/07/26 15:10:36;;;;;;;;;;;;;;;;;;5004473;28;19929;-62
2023/07/26 15:13:02;;;;;;;;;;;;;;;;;;5005516;28;19930;-62
2023/07/26 15:15:28;;;;;;;;;;;;;;;;;;5005110;28;20008;-61
2023/07/26 15:17:54;;;;;;;;;;;;;;;;;;5004763;28;20394;-63
2023/07/26 15:20:20;;;;;;;;;;;;;;;;;;5005648;28;20499;-62
2023/07/26 15:22:48;;;;;;;;;;;;;;;;;;5006096;28;19979;-62
2023/07/26 15:25:14;;;;;;;;;;;;;;;;;;4986807;28;20292;-62
2023/07/26 15:27:39;;;;;;;;;;;;;;;;;;5006159;28;19936;-62
2023/07/26 15:30:05;;;;;;;;;;;;;;;;;;5005175;28;19925;-62
2023/07/26 15:32:31;;;;;;;;;;;;;;;;;;5005710;28;19936;-62
2023/07/26 15:34:57;;;;;;;;;;;;;;;;;;5005662;28;19932;-62
2023/07/26 15:37:23;;;;;;;;;;;;;;;;;;5002169;28;19926;-62
2023/07/26 15:39:49;;;;;;;;;;;;;;;;;;4999137;28;19929;-61
2023/07/26 15:42:16;;;;;;;;;;;;;;;;;;5004830;28;19954;-62
2023/07/26 15:44:42;;;;;;;;;;;;;;;;;;5004345;28;20953;-61
2023/07/26 15:47:08;;;;;;;;;;;;;;;;;;4993673;28;20370;-62
2023/07/26 15:49:34;;;;;;;;;;;;;;;;;;5002313;28;20012;-62
2023/07/26 15:52:03;;;;;;;;;;;;;;;;;;5001626;28;20226;-62
2023/07/26 15:54:29;;;;;;;;;;;;;;;;;;5004236;28;19956;-63
2023/07/26 15:56:55;;;;;;;;;;;;;;;;;;4985283;28;19925;-62
2023/07/26 15:59:21;;;;;;;;;;;;;;;;;;4986968;28;20024;-63
2023/07/26 16:01:48;;;;;;;;;;;;;;;;;;5003097;28;20464;-62
2023/07/26 16:04:14;;;;;;;;;;;;;;;;;;4983194;28;20014;-62
2023/07/26 16:06:42;;;;;;;;;;;;;;;;;;4985591;28;19932;-62
2023/07/26 16:09:10;;;;;;;;;;;;;;;;;;4984923;28;19926;-61
2023/07/26 16:11:36;;;;;;;;;;;;;;;;;;4984149;28;19933;-61
2023/07/26 16:14:02;;;;;;;;;;;;;;;;;;4983123;28;19930;-61
2023/07/26 16:16:28;;;;;;;;;;;;;;;;;;4983435;28;19930;-63
2023/07/26 16:18:54;;;;;;;;;;;;;;;;;;4984842;28;20005;-61
2023/07/26 16:21:20;;;;;;;;;;;;;;;;;;4983456;28;20072;-61
2023/07/26 16:23:46;;;;;;;;;;;;;;;;;;4980608;28;19979;-61
2023/07/26 16:26:12;;;;;;;;;;;;;;;;;;4978159;28;20000;-61
2023/07/26 16:28:38;;;;;;;;;;;;;;;;;;4984088;28;20033;-61
2023/07/26 16:31:04;;;;;;;;;;;;;;;;;;4982802;28;19926;-61
2023/07/26 16:33:29;;;;;;;;;;;;;;;;;;4982872;28;19961;-61
2023/07/26 16:35:55;;;;;;;;;;;;;;;;;;4984634;28;19932;-61